• Join FlightAware (Why Join?)
  • Login
  • US Flag 
12:20AM EDT


 

Airport Tracker/Info


-or-


 

Live Flight TrackerFlight Track Log ✈ SWA1025 ✈ 12-Oct-2013 ✈ KBWI - KHOU

Flight Track Log - Related Links

Times and Time Zones

All times are in EDT time to prevent confusion due to time zone crossing. See the SWA1025 flight status page for this flight to view local times or setup timezone preferences in your user account.

Time Position Orientation Groundspeed Altitude Reporting Facility
EDT Latitude Longitude Course Direction KTS MPH feet Rate Location/Type
04:55PM 39.1233 -76.6511 288° West 199 229 1,800  Level Washington Center
04:56PM 39.1436 -76.7317 288° West 248 285 3,600 2,700 Climbing Washington Center
04:57PM 39.1833 -76.8333 297° West 294 338 7,500 3,540 Climbing Potomac TRACON
04:58PM 39.2167 -76.9333 293° West 309 356 11,000 2,760 Climbing Potomac TRACON
04:59PM 39.2167 -77.0500 270° West 350 403 13,100 2,400 Climbing Potomac TRACON
05:00PM 39.1833 -77.1667 250° West 388 447 15,800 2,460 Climbing Potomac TRACON
05:01PM 39.1000 -77.2500 218° Southwest 399 459 18,100 2,280 Climbing Potomac TRACON
05:03PM 38.9103 -77.3922 210° Southwest 447 514 22,400 1,680 Climbing Washington Center
05:04PM 38.8008 -77.4617 206° Southwest 447 514 23,000 1,020 Climbing Washington Center
05:05PM 38.6994 -77.5389 211° Southwest 436 502 24,500 1,620 Climbing Washington Center
05:06PM 38.6000 -77.6372 218° Southwest 447 514 26,300 1,620 Climbing Washington Center
05:07PM 38.5022 -77.7433 220° Southwest 458 527 27,900 1,560 Climbing Washington Center
05:08PM 38.4267 -77.8789 235° Southwest 463 533 29,500 1,620 Climbing Washington Center
05:09PM 38.3617 -78.0014 236° Southwest 469 540 31,100 1,620 Climbing Washington Center
05:10PM 38.2900 -78.1392 236° Southwest 469 540 32,800 1,140 Climbing Washington Center
05:11PM 38.2122 -78.2714 233° Southwest 469 540 33,400 900 Climbing Washington Center
05:12PM 38.1178 -78.3894 225° Southwest 474 545 34,700 1,380 Climbing Washington Center
05:13PM 38.0275 -78.5019 224° Southwest 468 539 36,200 1,260 Climbing Washington Center
05:14PM 37.9347 -78.6275 227° Southwest 460 529 37,200 900 Climbing Washington Center
05:15PM 37.8581 -78.7639 235° Southwest 465 535 38,000 360 Climbing Washington Center
05:16PM 37.8042 -78.9033 244° Southwest 459 528 38,000  Level Washington Center
05:17PM 37.7481 -79.0481 244° Southwest 452 520 38,000  Level Washington Center
05:18PM 37.7008 -79.1667 243° Southwest 446 513 38,000  Level Washington Center
05:19PM 37.6397 -79.3211 243° Southwest 441 507 38,000  Level Washington Center
05:20PM 37.5900 -79.4444 243° Southwest 441 507 38,000  Level Washington Center
05:21PM 37.5331 -79.5908 244° Southwest 435 501 38,000  Level Washington Center
05:22PM 37.4831 -79.7139 243° Southwest 440 506 38,000  Level Washington Center
05:23PM 37.4258 -79.8547 243° Southwest 440 506 38,000  Level Washington Center
05:24PM 37.3708 -79.9900 243° Southwest 446 513 38,000  Level Washington Center
05:26PM 37.2653 -80.2444 243° Southwest 466 536 38,000  Level Atlanta Center
05:27PM 37.2089 -80.3803 243° Southwest 454 522 38,000  Level Atlanta Center
05:28PM 37.1525 -80.5156 242° Southwest 454 522 38,000  Level Atlanta Center
05:29PM 37.0981 -80.6533 244° Southwest 443 510 38,000  Level Atlanta Center
05:30PM 37.0469 -80.7725 242° Southwest 438 504 38,000  Level Atlanta Center
05:31PM 36.9942 -80.9022 243° Southwest 438 504 38,000  Level Atlanta Center
05:32PM 36.9369 -81.0369 242° Southwest 438 504 38,000  Level Atlanta Center
05:33PM 36.8817 -81.1661 242° Southwest 438 504 38,000  Level Atlanta Center
05:34PM 36.8206 -81.3161 243° Southwest 438 504 38,000  Level Atlanta Center
05:35PM 36.7692 -81.4475 244° Southwest 438 504 38,000  Level Atlanta Center
05:36PM 36.7114 -81.5814 242° Southwest 438 504 38,000  Level Atlanta Center
05:37PM 36.6536 -81.7150 242° Southwest 443 510 38,000  Level Atlanta Center
05:38PM 36.5956 -81.8511 242° Southwest 443 510 38,000  Level Atlanta Center
05:39PM 36.5375 -81.9844 242° Southwest 438 504 38,000  Level Atlanta Center
05:40PM 36.4792 -82.1178 241° Southwest 438 504 38,000  Level Atlanta Center
05:41PM 36.4228 -82.2508 242° Southwest 438 504 38,000  Level Atlanta Center
05:42PM 36.3642 -82.3808 241° Southwest 438 504 38,000  Level Atlanta Center
05:43PM 36.3075 -82.5161 243° Southwest 438 504 38,000  Level Atlanta Center
05:44PM 36.2506 -82.6458 241° Southwest 438 504 38,000  Level Atlanta Center
05:45PM 36.1917 -82.7781 241° Southwest 443 510 38,000  Level Atlanta Center
05:46PM 36.1383 -82.8947 241° Southwest 443 510 38,000  Level Atlanta Center
05:47PM 36.0811 -83.0264 242° Southwest 434 499 38,000  Level Atlanta Center
05:48PM 36.0239 -83.1556 241° Southwest 439 505 38,000  Level Atlanta Center
05:49PM 35.9683 -83.2869 242° Southwest 439 505 38,000  Level Atlanta Center
05:50PM 35.9106 -83.4158 241° Southwest 434 499 38,000  Level Atlanta Center
05:51PM 35.8528 -83.5417 240° Southwest 434 499 38,000  Level Atlanta Center
05:52PM 35.7950 -83.6700 241° Southwest 439 505 38,000  Level Atlanta Center
05:53PM 35.7367 -83.7958 240° Southwest 439 505 38,000  Level Atlanta Center
05:54PM 35.6786 -83.9236 241° Southwest 439 505 38,000  Level Atlanta Center
05:55PM 35.6203 -84.0489 240° Southwest 439 505 38,000  Level Atlanta Center
05:56PM 35.5556 -84.1894 241° Southwest 439 505 38,000  Level Atlanta Center
05:57PM 35.4989 -84.3169 241° Southwest 439 505 38,000  Level Atlanta Center
05:58PM 35.4400 -84.4442 240° Southwest 439 505 38,000  Level Atlanta Center
05:59PM 35.3811 -84.5686 240° Southwest 439 505 38,000  Level Atlanta Center
06:00PM 35.3222 -84.6956 240° Southwest 439 505 38,000  Level Atlanta Center
06:01PM 35.2653 -84.8197 241° Southwest 433 498 38,000  Level Atlanta Center
06:02PM 35.2081 -84.9436 241° Southwest 433 498 38,000  Level Atlanta Center
06:03PM 35.1486 -85.0650 239° Southwest 427 491 38,000  Level Atlanta Center
06:04PM 35.0933 -85.1886 241° Southwest 427 491 38,000  Level Atlanta Center
06:05PM 35.0336 -85.3097 239° Southwest 427 491 38,000  Level Atlanta Center
06:06PM 34.9758 -85.4331 240° Southwest 427 491 38,000  Level Atlanta Center
06:07PM 34.9161 -85.5561 239° Southwest 427 491 38,000  Level Atlanta Center
06:08PM 34.8603 -85.6767 241° Southwest 422 486 38,000  Level Atlanta Center
06:09PM 34.8003 -85.7994 239° Southwest 422 486 38,000  Level Atlanta Center
06:10PM 34.7528 -85.9019 241° Southwest 416 479 38,000  Level Atlanta Center
06:11PM 34.6925 -86.0219 239° Southwest 416 479 38,000  Level Atlanta Center
06:12PM 34.6361 -86.1392 240° Southwest 416 479 38,000  Level Atlanta Center
06:13PM 34.5778 -86.2564 239° Southwest 411 473 38,000  Level Atlanta Center
06:14PM 34.5214 -86.3733 240° Southwest 411 473 38,000  Level Atlanta Center
06:15PM 34.4650 -86.4903 240° Southwest 411 473 38,000  Level Atlanta Center
06:17PM 34.3036 -86.8144 239° Southwest 408 470 38,000  Level Memphis Center
06:18PM 34.2406 -86.9428 239° Southwest 403 464 38,000  Level Memphis Center
06:19PM 34.1931 -87.0425 240° Southwest 403 464 38,000  Level Memphis Center
06:20PM 34.1375 -87.1550 239° Southwest 403 464 38,000  Level Memphis Center
06:21PM 34.0758 -87.2703 237° Southwest 386 444 38,000  Level Memphis Center
06:22PM 34.0222 -87.3800 240° Southwest 391 450 38,000  Level Memphis Center
06:23PM 33.9664 -87.4919 239° Southwest 392 451 38,000  Level Memphis Center
06:24PM 33.9064 -87.6067 238° Southwest 398 458 38,000  Level Memphis Center
06:25PM 33.8503 -87.7158 238° Southwest 393 452 38,000  Level Memphis Center
06:26PM 33.7981 -87.8200 239° Southwest 393 452 38,000  Level Memphis Center
06:27PM 33.7358 -87.9442 239° Southwest 398 458 38,000  Level Memphis Center
06:28PM 33.6797 -88.0531 238° Southwest 398 458 38,000  Level Memphis Center
06:29PM 33.6231 -88.1619 238° Southwest 393 452 38,000  Level Memphis Center
06:30PM 33.5667 -88.2706 238° Southwest 393 452 38,000  Level Memphis Center
06:31PM 33.5161 -88.3764 240° Southwest 388 447 38,000  Level Memphis Center
06:32PM 33.4633 -88.4747 237° Southwest 388 447 38,000  Level Memphis Center
06:33PM 33.4106 -88.5803 239° Southwest 388 447 38,000  Level Memphis Center
06:34PM 33.3536 -88.6858 237° Southwest 388 447 38,000  Level Memphis Center
06:35PM 33.3008 -88.7914 239° Southwest 388 447 38,000  Level Memphis Center
06:36PM 33.2436 -88.8992 238° Southwest 388 447 38,000  Level Memphis Center
06:37PM 33.1864 -89.0069 238° Southwest 388 447 38,000  Level Memphis Center
06:38PM 33.1311 -89.1144 238° Southwest 388 447 38,000  Level Memphis Center
06:39PM 33.0717 -89.2244 237° Southwest 393 452 38,000  Level Memphis Center
06:40PM 33.0142 -89.3292 237° Southwest 393 452 38,000  Level Memphis Center
06:41PM 32.9567 -89.4361 237° Southwest 393 452 38,000  Level Memphis Center
06:42PM 32.9008 -89.5408 238° Southwest 393 452 38,000  Level Memphis Center
06:43PM 32.8431 -89.6453 237° Southwest 393 452 38,000  Level Memphis Center
06:44PM 32.7853 -89.7519 237° Southwest 393 452 38,000  Level Memphis Center
06:45PM 32.7272 -89.8583 237° Southwest 393 452 38,000  Level Memphis Center
06:46PM 32.6714 -89.9650 238° Southwest 393 452 38,000  Level Memphis Center
06:47PM 32.6172 -90.0686 238° Southwest 393 452 38,000  Level Memphis Center
06:48PM 32.5694 -90.1772 242° Southwest 388 447 38,000  Level Memphis Center
06:49PM 32.5342 -90.2908 250° West 371 427 38,000  Level Memphis Center
06:50PM 32.5008 -90.4042 251° West 364 419 38,000  Level Memphis Center
06:51PM 32.4653 -90.5222 250° West 371 427 38,000  Level Memphis Center
06:52PM 32.4358 -90.6428 254° West 376 433 38,000  Level Memphis Center
06:53PM 32.3894 -90.7508 243° Southwest 382 440 38,000  Level Memphis Center
06:54PM 32.2767 -90.7922 197° South 367 422 38,000  Level Memphis Center
06:55PM 32.1556 -90.8139 189° South 393 452 38,000  Level Memphis Center
06:57PM 31.9983 -90.8431 189° South 432 497 38,000  Level Houston Center
06:58PM 31.8772 -90.8678 190° South 437 503 38,000  Level Houston Center
06:59PM 31.7647 -90.8911 190° South 442 509 38,000  Level Houston Center
07:00PM 31.6169 -90.9203 190° South 448 516 38,000  Level Houston Center
07:01PM 31.4983 -90.9603 196° South 445 512 38,000  Level Houston Center
07:02PM 31.3964 -91.0383 213° Southwest 438 504 38,000  Level Houston Center
07:03PM 31.3083 -91.1106 215° Southwest 436 502 38,000  Level Houston Center
07:04PM 31.2028 -91.1956 215° Southwest 424 488 38,000  Level Houston Center
07:05PM 31.1094 -91.2703 214° Southwest 413 475 38,000  Level Houston Center
07:06PM 31.0006 -91.3561 214° Southwest 420 483 38,000  Level Houston Center
07:07PM 30.9058 -91.4319 214° Southwest 416 479 38,000  Level Houston Center
07:08PM 30.8094 -91.5089 214° Southwest 417 480 38,000  Level Houston Center
07:09PM 30.7122 -91.5847 214° Southwest 418 481 38,000  Level Houston Center
07:10PM 30.6139 -91.6633 215° Southwest 425 489 38,000  Level Houston Center
07:11PM 30.5122 -91.7425 214° Southwest 436 502 38,000  Level Houston Center
07:12PM 30.4111 -91.8219 214° Southwest 437 503 38,000  Level Houston Center
07:13PM 30.3108 -91.9006 214° Southwest 434 499 38,000  Level Houston Center
07:14PM 30.1925 -91.9914 214° Southwest 435 501 38,000  Level Houston Center
07:15PM 30.0911 -92.0664 213° Southwest 435 501 38,000  Level Houston Center
07:16PM 30.0172 -92.1692 230° Southwest 420 483 38,000  Level Houston Center
07:17PM 29.9442 -92.2722 231° Southwest 416 479 38,000  Level Houston Center
07:18PM 29.8728 -92.3744 231° Southwest 411 473 38,000  Level Houston Center
07:19PM 29.7994 -92.4764 230° Southwest 412 474 38,000  Level Houston Center
07:20PM 29.7264 -92.5789 231° Southwest 413 475 38,000  Level Houston Center
07:21PM 29.6528 -92.6794 230° Southwest 411 473 38,000  Level Houston Center
07:22PM 29.5669 -92.8003 231° Southwest 407 468 38,000  Level Houston Center
07:23PM 29.4928 -92.9022 230° Southwest 412 474 38,000 -120 Level Houston Center
07:24PM 29.4197 -93.0031 230° Southwest 411 473 37,800 -1,140 Descending Houston Center
07:25PM 29.3469 -93.1042 230° Southwest 411 473 35,700 -2,160 Descending Houston Center
07:26PM 29.2728 -93.2058 230° Southwest 414 476 33,400 -2,160 Descending Houston Center
07:27PM 29.2575 -93.3258 262° West 386 444 31,300 -2,100 Descending Houston Center
07:28PM 29.2583 -93.4478 270° West 383 441 29,200 -2,040 Descending Houston Center
07:29PM 29.2600 -93.5661 271° West 376 433 27,200 -1,920 Descending Houston Center
07:30PM 29.2614 -93.6819 271° West 366 421 25,300 -2,100 Descending Houston Center
07:32PM 29.2633 -93.8167 271° West 354 407 23,000 -2,100 Descending Houston Center
07:33PM 29.2636 -93.9217 270° West 351 404 21,100 -1,980 Descending Houston Center
07:34PM 29.2647 -94.0367 271° West 360 414 19,000 -2,040 Descending Houston Center
07:35PM 29.2667 -94.1536 271° West 366 421 17,000 -2,160 Descending Houston Center
07:35PM 29.2650 -94.1956 267° West 366 421 16,300 -1,980 Descending Houston Center
07:36PM 29.2675 -94.2656 272° West 354 407 15,000 -1,920 Descending Houston Center
07:36PM 29.2658 -94.3297 268° West 348 400 14,000 -1,620 Descending Houston Center
07:37PM 29.2678 -94.3736 273° West 344 396 13,400 -1,320 Descending Houston Center
07:37PM 29.2658 -94.4350 268° West 335 386 12,700 -1,860 Descending Houston Center
07:38PM 29.2750 -94.5008 279° West 336 387 11,500 -1,980 Descending Houston Center
07:38PM 29.2981 -94.5483 299° West 333 383 10,500 -1,380 Descending Houston Center
07:39PM 29.3211 -94.5917 301° West 330 380 10,100 -420 Descending Houston Center
07:39PM 29.3428 -94.6411 297° West 327 376 10,100  Level Houston Center
07:40PM 29.3653 -94.6833 301° West 329 379 10,100  Level Houston Center
07:40PM 29.3897 -94.7336 299° West 325 374 10,100  Level Houston Center
07:41PM 29.4086 -94.7722 299° West 323 372 10,100  Level Houston Center
07:41PM 29.4342 -94.8239 300° West 322 371 10,100 -240 Level Houston Center
07:42PM 29.4536 -94.8625 300° West 325 374 9,900 -600 Descending Houston Center
07:42PM 29.4783 -94.9144 299° West 312 359 9,500 -1,020 Descending Houston Center
07:43PM 29.4947 -94.9475 300° West 310 357 8,900 -1,320 Descending Houston Center
07:43PM 29.5125 -94.9869 297° West 291 335 8,300 -1,500 Descending Houston Center
07:44PM 29.5344 -95.0281 302° West 294 338 7,400 -1,560 Descending Houston Center
07:44PM 29.5569 -95.0775 298° West 292 336 6,600 -1,380 Descending Houston Center
07:45PM 29.5736 -95.1089 301° West 290 334 6,000 -480 Descending Houston Center
07:46PM 29.6042 -95.2075 290° West 285 328 5,900 60 Descending Houston Center
07:46PM 29.6081 -95.2419 277° West 249 287 6,100 -300 Climbing Houston Center
07:47PM 29.6133 -95.2767 280° West 253 291 5,600 -1,140 Descending Houston Center
07:47PM 29.6183 -95.3103 280° West 236 272 5,100 -1,440 Descending Houston Center
07:48PM 29.6294 -95.3836 280° West 227 261 3,700 -1,260 Descending Houston Center
07:49PM 29.6533 -95.4083 318° Northwest 237 273 3,000 -1,440 Descending Houston Center
07:49PM 29.6786 -95.3922 29° Northeast 231 266 2,300 -1,260 Descending Houston Center
07:50PM 29.6967 -95.3622 55° Northeast 225 259 1,700 -900 Descending Houston Center
07:50PM 29.6922 -95.3353 101° East 181 208 1,400 -1,140 Descending Houston Center
07:51PM 29.6708 -95.3100 134° Southeast 179 206 600 -900 Descending Houston Center
07:51PM 29.6592 -95.2958 133° Southeast 140 161 400 -600 Descending Houston Center